createdAt,value
2019-04-25T00:00:34.405Z,17.38
2019-04-25T00:01:14.977Z,17.36
2019-04-25T00:01:55.544Z,17.42
2019-04-25T00:02:36.746Z,17.45
2019-04-25T00:03:16.679Z,17.46
2019-04-25T00:03:57.259Z,17.39
2019-04-25T00:04:38.721Z,17.38
2019-04-25T00:05:18.430Z,17.38
2019-04-25T00:05:58.982Z,17.41
2019-04-25T00:06:39.546Z,17.45
2019-04-25T00:07:21.618Z,17.46
2019-04-25T00:08:01.491Z,17.42
2019-04-25T00:08:42.711Z,17.36
2019-04-25T00:09:22.036Z,17.38
2019-04-25T00:10:02.428Z,17.41
2019-04-25T00:10:43.795Z,17.38
2019-04-25T00:11:23.573Z,17.39
2019-04-25T00:12:04.183Z,17.36
2019-04-25T00:12:45.542Z,17.44
2019-04-25T00:13:25.310Z,17.31
2019-04-25T00:14:06.594Z,17.36
2019-04-25T00:14:48.063Z,17.41
2019-04-25T00:15:27.760Z,17.39
2019-04-25T00:16:08.334Z,17.39
2019-04-25T00:16:49.260Z,17.44
2019-04-25T00:17:29.481Z,17.34
2019-04-25T00:18:10.062Z,17.38
2019-04-25T00:18:51.635Z,17.33
2019-04-25T00:19:31.662Z,17.39
2019-04-25T00:20:11.993Z,17.34
2019-04-25T00:20:52.577Z,17.31
2019-04-25T00:21:33.830Z,17.42
2019-04-25T00:22:13.682Z,17.33
2019-04-25T00:22:54.300Z,17.39
2019-04-25T00:23:34.900Z,17.39
2019-04-25T00:24:15.508Z,17.36
2019-04-25T00:24:56.137Z,17.45
2019-04-25T00:25:36.733Z,17.41
2019-04-25T00:26:17.287Z,17.38
2019-04-25T00:27:02.145Z,17.42
2019-04-25T00:27:43.558Z,17.45
2019-04-25T00:28:22.815Z,17.39
2019-04-25T00:29:03.958Z,17.39
2019-04-25T00:29:45.581Z,17.39
2019-04-25T00:30:24.570Z,17.41
2019-04-25T00:31:05.124Z,17.42
2019-04-25T00:31:45.828Z,17.34
2019-04-25T00:32:26.283Z,17.41
2019-04-25T00:33:06.865Z,17.33
2019-04-25T00:33:47.449Z,17.34
2019-04-25T00:34:28.012Z,17.36
2019-04-25T00:35:08.581Z,17.36
2019-04-25T00:35:49.598Z,17.38
2019-04-25T00:36:29.743Z,17.33
2019-04-25T00:37:10.318Z,17.36
2019-04-25T00:37:52.452Z,17.39
2019-04-25T00:38:31.839Z,17.34
2019-04-25T00:39:12.035Z,17.39
2019-04-25T00:39:53.465Z,17.38
2019-04-25T00:40:33.216Z,17.38
2019-04-25T00:41:13.781Z,17.31
2019-04-25T00:41:54.333Z,17.34
2019-04-25T00:42:34.932Z,17.31
2019-04-25T00:43:15.497Z,17.36
2019-04-25T00:43:56.081Z,17.34
2019-04-25T00:44:36.682Z,17.36
2019-04-25T00:45:17.274Z,17.31
2019-04-25T00:45:57.854Z,17.34
2019-04-25T00:46:38.433Z,17.34
2019-04-25T00:47:18.990Z,17.34
2019-04-25T00:47:59.577Z,17.33
2019-04-25T00:48:41.433Z,17.44
2019-04-25T00:49:21.957Z,17.33
2019-04-25T00:50:02.255Z,17.34
2019-04-25T00:50:43.250Z,17.3
2019-04-25T00:51:22.513Z,17.33
2019-04-25T00:52:03.079Z,17.33
2019-04-25T00:52:44.774Z,17.39
2019-04-25T00:53:24.250Z,17.39
2019-04-25T00:54:04.793Z,17.31
2019-04-25T00:54:46.231Z,17.34
2019-04-25T00:55:28.756Z,17.34
2019-04-25T00:56:06.564Z,17.31
2019-04-25T00:56:48.202Z,17.36
2019-04-25T00:57:27.700Z,17.34
2019-04-25T00:58:08.274Z,17.34
2019-04-25T00:58:48.944Z,17.34
2019-04-25T00:59:29.419Z,17.31
2019-04-25T01:00:11.550Z,17.29
2019-04-25T01:00:51.105Z,17.29
2019-04-25T01:01:31.647Z,17.36
2019-04-25T01:02:11.812Z,17.34
2019-04-25T01:02:53.370Z,17.34
2019-04-25T01:03:32.945Z,17.38
2019-04-25T01:04:13.532Z,17.3
2019-04-25T01:04:54.207Z,17.24
2019-04-25T01:05:34.665Z,17.38
2019-04-25T01:06:15.228Z,17.29
2019-04-25T01:06:55.781Z,17.34
2019-04-25T01:07:36.495Z,17.29
2019-04-25T01:08:17.073Z,17.31
2019-04-25T01:08:57.648Z,17.3
2019-04-25T01:09:38.250Z,17.33
2019-04-25T01:10:18.802Z,17.22
2019-04-25T01:10:59.377Z,17.16
2019-04-25T01:11:39.950Z,17.19
2019-04-25T01:12:21.574Z,17.22
2019-04-25T01:13:03.043Z,17.26
2019-04-25T01:13:42.248Z,17.26
2019-04-25T01:14:22.271Z,17.24
2019-04-25T01:15:02.826Z,17.2
2019-04-25T01:15:44.806Z,17.26
2019-04-25T01:16:23.936Z,17.14
2019-04-25T01:17:04.514Z,17.14
2019-04-25T01:17:45.421Z,17.11
2019-04-25T01:18:27.321Z,17.09
2019-04-25T01:19:06.223Z,17.14
2019-04-25T01:19:46.835Z,17.15
2019-04-25T01:20:27.356Z,17.08
2019-04-25T01:21:07.922Z,17.11
2019-04-25T01:21:49.117Z,17.09
2019-04-25T01:22:29.076Z,17.22
2019-04-25T01:23:09.636Z,17.12
2019-04-25T01:23:50.223Z,17.09
2019-04-25T01:24:30.791Z,17.09
2019-04-25T01:25:11.363Z,17.14
2019-04-25T01:25:53.369Z,17.14
2019-04-25T01:26:33.779Z,17.12
2019-04-25T01:27:13.468Z,17.16
2019-04-25T01:27:54.542Z,17.12
2019-04-25T01:28:35.447Z,17.12
2019-04-25T01:29:14.850Z,17.15
2019-04-25T01:29:56.268Z,17.16
2019-04-25T01:30:36.025Z,17.19
2019-04-25T01:31:16.593Z,17.22
2019-04-25T01:31:57.172Z,17.2
2019-04-25T01:32:37.726Z,17.22
2019-04-25T01:33:18.286Z,17.23
2019-04-25T01:33:58.859Z,17.22
2019-04-25T01:34:39.428Z,17.19
2019-04-25T01:35:19.974Z,17.24
2019-04-25T01:36:00.613Z,17.19
2019-04-25T01:36:41.214Z,17.19
2019-04-25T01:37:21.798Z,17.15
2019-04-25T01:38:03.637Z,17.24
2019-04-25T01:38:43.346Z,17.11
2019-04-25T01:39:24.193Z,17.22
2019-04-25T01:40:04.258Z,17.22
2019-04-25T01:40:44.797Z,17.26
2019-04-25T01:41:25.394Z,17.22
2019-04-25T01:42:05.992Z,17.22
2019-04-25T01:42:47.831Z,17.2
2019-04-25T01:43:27.153Z,17.24
2019-04-25T01:44:07.779Z,17.26
2019-04-25T01:44:49.425Z,17.16
2019-04-25T01:45:28.961Z,17.2
2019-04-25T01:46:09.590Z,17.22
2019-04-25T01:46:50.238Z,17.23
2019-04-25T01:47:30.831Z,17.2
2019-04-25T01:48:11.414Z,17.19
2019-04-25T01:48:52.655Z,17.19
2019-04-25T01:49:33.929Z,17.22
2019-04-25T01:50:13.713Z,17.22
2019-04-25T01:50:54.512Z,17.22
2019-04-25T01:51:34.279Z,17.22
2019-04-25T01:52:14.863Z,17.23
2019-04-25T01:52:55.635Z,17.22
2019-04-25T01:53:36.026Z,17.22
2019-04-25T01:54:16.616Z,17.24
2019-04-25T01:54:57.188Z,17.26
2019-04-25T01:55:37.780Z,17.22
2019-04-25T01:56:18.348Z,17.23
2019-04-25T01:56:59.348Z,17.26
2019-04-25T01:57:39.565Z,17.22
2019-04-25T01:58:20.147Z,17.22
2019-04-25T01:59:01.512Z,17.29
2019-04-25T01:59:41.272Z,17.29
2019-04-25T02:00:23.244Z,17.22
2019-04-25T02:01:03.095Z,17.27
2019-04-25T02:01:44.015Z,17.22
2019-04-25T02:02:23.682Z,17.16
2019-04-25T02:03:04.573Z,17.23
2019-04-25T02:03:44.775Z,17.26
2019-04-25T02:04:25.337Z,17.19
2019-04-25T02:05:05.921Z,17.2
2019-04-25T02:05:46.478Z,17.26
2019-04-25T02:06:27.055Z,17.34
2019-04-25T02:07:07.610Z,17.31
2019-04-25T02:07:48.165Z,17.34
2019-04-25T02:08:28.737Z,17.3
2019-04-25T02:09:09.347Z,17.31
2019-04-25T02:09:49.933Z,17.33
2019-04-25T02:10:30.507Z,17.41
2019-04-25T02:11:11.089Z,17.31
2019-04-25T02:11:52.443Z,17.26
2019-04-25T02:12:33.588Z,17.31
2019-04-25T02:13:13.843Z,17.23
2019-04-25T02:13:54.881Z,17.3
2019-04-25T02:14:33.970Z,17.36
2019-04-25T02:15:14.549Z,17.26
2019-04-25T02:15:55.932Z,17.31
2019-04-25T02:16:35.781Z,17.26
2019-04-25T02:17:16.368Z,17.3
2019-04-25T02:17:59.051Z,17.16
2019-04-25T02:18:37.625Z,17.2
2019-04-25T02:19:18.179Z,17.26
2019-04-25T02:19:59.603Z,17.23
2019-04-25T02:20:39.356Z,17.14
2019-04-25T02:21:19.937Z,17.16
2019-04-25T02:22:00.487Z,17.19
2019-04-25T02:22:41.106Z,17.15
2019-04-25T02:23:21.675Z,17.15
2019-04-25T02:24:03.907Z,17.14
2019-04-25T02:24:43.683Z,17.08
2019-04-25T02:25:24.612Z,17.15
2019-04-25T02:26:15.127Z,17.05
2019-04-25T02:26:44.528Z,17.02
2019-04-25T02:27:25.094Z,17.04
2019-04-25T02:28:05.785Z,17.02
2019-04-25T02:28:46.286Z,16.97
2019-04-25T02:29:26.876Z,16.99
2019-04-25T02:30:07.441Z,17.02
2019-04-25T02:30:48.045Z,16.89
2019-04-25T02:31:28.628Z,16.9
2019-04-25T02:32:09.345Z,16.84
2019-04-25T02:32:50.310Z,16.87
2019-04-25T02:33:30.899Z,16.84
2019-04-25T02:34:11.459Z,16.87
2019-04-25T02:34:53.972Z,16.79
2019-04-25T02:35:34.644Z,16.75
2019-04-25T02:36:14.998Z,16.83
2019-04-25T02:36:57.506Z,16.72
2019-04-25T02:37:35.119Z,16.72
2019-04-25T02:38:16.934Z,16.72
2019-04-25T02:38:58.413Z,16.71
2019-04-25T02:39:37.281Z,16.68
2019-04-25T02:40:16.796Z,16.74
2019-04-25T02:40:59.360Z,16.65
2019-04-25T02:41:37.969Z,16.74
2019-04-25T02:42:18.538Z,16.69
2019-04-25T02:43:00.788Z,16.74
2019-04-25T02:43:39.667Z,16.74
2019-04-25T02:44:20.246Z,16.64
2019-04-25T02:45:02.396Z,16.69
2019-04-25T02:45:41.457Z,16.75
2019-04-25T02:46:22.051Z,16.64
2019-04-25T02:47:06.434Z,16.61
2019-04-25T02:47:43.779Z,16.61
2019-04-25T02:48:24.219Z,16.61
2019-04-25T02:49:08.789Z,16.68
2019-04-25T02:49:45.009Z,16.58
2019-04-25T02:50:25.567Z,16.61
2019-04-25T02:51:07.501Z,16.65
2019-04-25T02:51:46.736Z,16.65
2019-04-25T02:52:27.325Z,16.61
2019-04-25T02:53:07.869Z,16.66
2019-04-25T02:53:48.415Z,16.65
2019-04-25T02:54:29.004Z,16.61
2019-04-25T02:55:11.052Z,16.56
2019-04-25T02:55:50.167Z,16.56
2019-04-25T02:56:34.656Z,16.58
2019-04-25T02:57:11.294Z,16.56
2019-04-25T02:57:54.013Z,16.65
2019-04-25T02:58:34.209Z,16.6
2019-04-25T02:59:14.840Z,16.6
2019-04-25T02:59:54.699Z,16.61
2019-04-25T03:00:49.628Z,16.65
2019-04-25T03:01:21.530Z,16.64
2019-04-25T03:01:56.960Z,16.64
2019-04-25T03:02:36.991Z,16.57
2019-04-25T03:03:16.527Z,16.61
2019-04-25T03:03:57.900Z,16.61
2019-04-25T03:04:37.677Z,16.6
2019-04-25T03:05:18.301Z,16.58
2019-04-25T03:05:59.554Z,16.57
2019-04-25T03:06:39.478Z,16.61
2019-04-25T03:07:20.014Z,16.64
2019-04-25T03:08:01.633Z,16.57
2019-04-25T03:08:41.267Z,16.56
2019-04-25T03:09:21.804Z,16.57
2019-04-25T03:10:04.371Z,16.57
2019-04-25T03:10:44.290Z,16.54
2019-04-25T03:11:24.470Z,16.56
2019-04-25T03:12:06.386Z,16.54
2019-04-25T03:12:44.842Z,16.57
2019-04-25T03:13:25.334Z,16.56
2019-04-25T03:14:08.054Z,16.54
2019-04-25T03:14:46.465Z,16.54
2019-04-25T03:15:27.050Z,16.54
2019-04-25T03:16:10.575Z,16.61
2019-04-25T03:16:48.282Z,16.56
2019-04-25T03:17:28.872Z,16.51
2019-04-25T03:18:12.310Z,16.53
2019-04-25T03:18:50.044Z,16.53
2019-04-25T03:19:30.619Z,16.54
2019-04-25T03:20:11.775Z,16.54
2019-04-25T03:20:51.810Z,16.56
2019-04-25T03:21:34.842Z,16.56
2019-04-25T03:22:14.991Z,16.54
2019-04-25T03:22:54.655Z,16.54
2019-04-25T03:23:35.198Z,16.49
2019-04-25T03:24:16.693Z,16.58
2019-04-25T03:24:55.372Z,16.51
2019-04-25T03:25:35.927Z,16.51
2019-04-25T03:26:16.513Z,16.56
2019-04-25T03:26:57.115Z,16.54
2019-04-25T03:27:37.665Z,16.64
2019-04-25T03:28:18.281Z,16.6
2019-04-25T03:28:59.652Z,16.65
2019-04-25T03:29:39.468Z,16.61
2019-04-25T03:30:20.015Z,16.69
2019-04-25T03:31:02.033Z,16.61
2019-04-25T03:31:41.147Z,16.65
2019-04-25T03:32:21.713Z,16.65
2019-04-25T03:33:07.298Z,16.71
2019-04-25T03:33:45.722Z,16.69
2019-04-25T03:34:25.272Z,16.61
2019-04-25T03:35:05.560Z,16.6
2019-04-25T03:35:44.714Z,16.66
2019-04-25T03:36:25.306Z,16.66
2019-04-25T03:37:06.501Z,16.71
2019-04-25T03:37:46.463Z,16.64
2019-04-25T03:38:27.052Z,16.65
2019-04-25T03:39:08.671Z,16.61
2019-04-25T03:39:48.221Z,16.72
2019-04-25T03:40:28.809Z,16.57
2019-04-25T03:41:09.397Z,16.69
2019-04-25T03:41:49.948Z,16.65
2019-04-25T03:42:30.565Z,16.68
2019-04-25T03:43:11.152Z,16.78
2019-04-25T03:43:51.777Z,16.72
2019-04-25T03:44:33.735Z,16.71
2019-04-25T03:45:13.952Z,16.66
2019-04-25T03:45:53.614Z,16.69
2019-04-25T03:46:34.146Z,16.76
2019-04-25T03:47:14.778Z,16.75
2019-04-25T03:47:55.273Z,16.75
2019-04-25T03:48:36.963Z,16.83
2019-04-25T03:49:16.444Z,16.78
2019-04-25T03:49:57.030Z,16.65
2019-04-25T03:50:37.596Z,16.75
2019-04-25T03:51:18.199Z,16.64
2019-04-25T03:51:58.790Z,16.69
2019-04-25T03:52:39.371Z,16.65
2019-04-25T03:53:19.957Z,16.66
2019-04-25T03:54:00.571Z,16.74
2019-04-25T03:54:41.161Z,16.71
2019-04-25T03:55:21.719Z,16.69
2019-04-25T03:56:04.455Z,16.64
2019-04-25T03:56:50.452Z,16.66
2019-04-25T03:57:23.464Z,16.68
2019-04-25T03:58:05.135Z,16.69
2019-04-25T03:58:44.663Z,16.66
2019-04-25T03:59:25.223Z,16.68
2019-04-25T04:00:06.492Z,16.74
2019-04-25T04:00:46.398Z,16.68
2019-04-25T04:01:26.986Z,16.68
2019-04-25T04:02:08.133Z,16.58
2019-04-25T04:02:48.178Z,16.64
2019-04-25T04:03:28.721Z,16.71
2019-04-25T04:04:09.281Z,16.61
2019-04-25T04:04:49.846Z,16.56
2019-04-25T04:05:30.405Z,16.56
2019-04-25T04:06:11.620Z,16.58
2019-04-25T04:06:51.696Z,16.54
2019-04-25T04:07:33.672Z,16.6
2019-04-25T04:08:14.702Z,16.53
2019-04-25T04:08:53.858Z,16.51
2019-04-25T04:09:34.009Z,16.54
2019-04-25T04:10:15.509Z,16.5
2019-04-25T04:10:55.164Z,16.5
2019-04-25T04:11:35.768Z,16.53
2019-04-25T04:12:16.341Z,16.5
2019-04-25T04:12:56.917Z,16.5
2019-04-25T04:13:37.512Z,16.46
2019-04-25T04:14:18.088Z,16.39
2019-04-25T04:14:58.664Z,16.42
2019-04-25T04:15:39.250Z,16.43
2019-04-25T04:16:19.803Z,16.46
2019-04-25T04:17:00.480Z,16.38
2019-04-25T04:17:40.970Z,16.35
2019-04-25T04:18:21.560Z,16.35
2019-04-25T04:19:02.137Z,16.32
2019-04-25T04:19:43.551Z,16.32
2019-04-25T04:20:23.559Z,16.38
2019-04-25T04:21:05.339Z,16.26
2019-04-25T04:21:44.550Z,16.21
2019-04-25T04:22:25.185Z,16.29
2019-04-25T04:23:05.763Z,16.23
2019-04-25T04:23:46.332Z,16.2
2019-04-25T04:24:26.891Z,16.2
2019-04-25T04:25:07.595Z,16.21
2019-04-25T04:25:48.089Z,16.08
2019-04-25T04:26:28.680Z,16.16
2019-04-25T04:27:10.613Z,16.04
2019-04-25T04:27:49.864Z,16.09
2019-04-25T04:28:30.441Z,16.09
2019-04-25T04:29:11.013Z,16.04
2019-04-25T04:29:51.587Z,16.04
2019-04-25T04:30:33.767Z,16.1
2019-04-25T04:31:14.283Z,16.08
2019-04-25T04:31:54.367Z,16.09
2019-04-25T04:32:34.249Z,16.05
2019-04-25T04:33:25.646Z,16
2019-04-25T04:33:55.374Z,16.02
2019-04-25T04:34:35.961Z,16.02
2019-04-25T04:35:17.404Z,16
2019-04-25T04:35:57.123Z,16.05
2019-04-25T04:36:37.665Z,16.01
2019-04-25T04:37:18.292Z,15.97
2019-04-25T04:37:58.874Z,16.01
2019-04-25T04:38:39.505Z,16.02
2019-04-25T04:39:20.021Z,16.05
2019-04-25T04:40:00.575Z,16.05
2019-04-25T04:40:41.184Z,16.04
2019-04-25T04:41:21.775Z,15.97
2019-04-25T04:42:03.787Z,16.01
2019-04-25T04:42:43.490Z,16.04
2019-04-25T04:43:23.893Z,16
2019-04-25T04:44:04.254Z,16.05
2019-04-25T04:44:44.810Z,16.12
2019-04-25T04:45:25.346Z,16.01
2019-04-25T04:46:05.957Z,16.02
2019-04-25T04:46:46.548Z,16
2019-04-25T04:47:27.133Z,15.98
2019-04-25T04:48:08.666Z,15.98
2019-04-25T04:48:48.331Z,15.97
2019-04-25T04:49:28.885Z,15.92
2019-04-25T04:50:10.404Z,16.01
2019-04-25T04:50:50.060Z,15.97
2019-04-25T04:51:30.637Z,15.98
2019-04-25T04:52:11.249Z,15.98
2019-04-25T04:52:51.826Z,16.02
2019-04-25T04:53:33.863Z,15.98
2019-04-25T04:54:13.542Z,16
2019-04-25T04:55:03.602Z,15.98
2019-04-25T04:55:34.382Z,15.94
2019-04-25T04:56:15.574Z,15.94
2019-04-25T04:56:55.281Z,15.9
2019-04-25T04:57:36.308Z,16
2019-04-25T04:58:17.615Z,15.95
2019-04-25T04:58:56.987Z,15.83
2019-04-25T04:59:37.612Z,15.92
2019-04-25T05:00:18.647Z,15.91
2019-04-25T05:00:58.733Z,15.86
2019-04-25T05:01:39.300Z,15.92
2019-04-25T05:02:19.895Z,15.88
2019-04-25T05:03:00.460Z,15.84
2019-04-25T05:03:41.059Z,15.8
2019-04-25T05:04:21.612Z,15.86
2019-04-25T05:07:35.636Z,15.86
2019-04-25T05:08:17.241Z,15.97
2019-04-25T05:08:56.778Z,15.84
2019-04-25T05:09:37.377Z,15.97
2019-04-25T05:10:19.002Z,15.95
2019-04-25T05:10:58.754Z,15.98
2019-04-25T05:11:39.329Z,16.02
2019-04-25T05:12:19.886Z,15.98
2019-04-25T05:13:00.490Z,16.01
2019-04-25T05:13:41.143Z,16.02
2019-04-25T05:14:21.802Z,15.95
2019-04-25T05:15:03.749Z,15.97
2019-04-25T05:15:44.535Z,15.98
2019-04-25T05:16:23.875Z,16.02
2019-04-25T05:17:04.371Z,16.05
2019-04-25T05:17:44.768Z,16.05
2019-04-25T05:18:34.303Z,15.98
2019-04-25T05:19:05.914Z,16
2019-04-25T05:19:46.485Z,16.05
2019-04-25T05:20:27.052Z,15.97
2019-04-25T05:21:07.724Z,16
2019-04-25T05:21:48.289Z,15.97
2019-04-25T05:22:28.858Z,16.02
2019-04-25T05:23:09.463Z,16.05
2019-04-25T05:23:50.020Z,15.97
2019-04-25T05:24:30.583Z,16.05
2019-04-25T05:25:11.256Z,16.04
2019-04-25T05:25:51.782Z,16.08
2019-04-25T05:26:33.965Z,16.09
2019-04-25T05:27:15.331Z,16.1
2019-04-25T05:28:00.550Z,15.98
2019-04-25T05:28:34.179Z,16.02
2019-04-25T05:29:19.528Z,16.01
2019-04-25T05:29:55.344Z,16.04
2019-04-25T05:30:35.938Z,16
2019-04-25T05:31:17.109Z,16.05
2019-04-25T05:31:57.161Z,16.04
2019-04-25T05:32:37.717Z,16.01
2019-04-25T05:33:19.903Z,16.04
2019-04-25T05:33:58.868Z,16.1
2019-04-25T05:34:39.459Z,16
2019-04-25T05:35:20.031Z,15.98
2019-04-25T05:36:00.627Z,16.02
2019-04-25T05:36:41.290Z,15.97
2019-04-25T05:37:23.949Z,16
2019-04-25T05:38:03.387Z,15.95
2019-04-25T05:38:43.546Z,15.98
2019-04-25T05:39:24.095Z,16.01
2019-04-25T05:40:05.590Z,15.94
2019-04-25T05:40:44.765Z,15.97
2019-04-25T05:41:25.337Z,16.01
2019-04-25T05:42:07.564Z,16.02
2019-04-25T05:42:46.505Z,16.01
2019-04-25T05:43:27.077Z,16.02
2019-04-25T05:44:07.653Z,15.98
2019-04-25T05:44:48.282Z,16.09
2019-04-25T05:45:28.899Z,16.09
2019-04-25T05:46:09.466Z,16.02
2019-04-25T05:46:50.032Z,16.08
2019-04-25T05:47:30.620Z,16.04
2019-04-25T05:48:11.190Z,16.13
2019-04-25T05:48:51.754Z,16.01
2019-04-25T05:49:34.041Z,16.1
2019-04-25T05:50:13.881Z,16.12
2019-04-25T05:50:53.781Z,16.13
2019-04-25T05:51:34.060Z,16.09
2019-04-25T05:52:15.931Z,16.21
2019-04-25T05:52:55.180Z,16.21
2019-04-25T05:53:35.754Z,16.32
2019-04-25T05:54:16.586Z,16.28
2019-04-25T05:54:56.893Z,16.33
2019-04-25T05:55:37.434Z,16.43
2019-04-25T05:56:18.099Z,16.46
2019-04-25T05:56:58.572Z,16.49
2019-04-25T05:57:45.987Z,16.51
2019-04-25T05:58:20.423Z,16.53
2019-04-25T05:59:00.261Z,16.51
2019-04-25T05:59:40.812Z,16.57
2019-04-25T06:00:21.376Z,16.6
2019-04-25T06:01:03.287Z,16.64
2019-04-25T06:01:43.426Z,16.68
2019-04-25T06:02:25.153Z,16.75
2019-04-25T06:03:03.758Z,16.71
2019-04-25T06:03:44.279Z,16.81
2019-04-25T06:04:25.849Z,16.83
2019-04-25T06:05:05.423Z,16.84
2019-04-25T06:05:46.030Z,16.96
2019-04-25T06:06:26.667Z,17.04
2019-04-25T06:07:07.237Z,17.01
2019-04-25T06:07:47.866Z,17.12
2019-04-25T06:08:28.430Z,17.16
2019-04-25T06:09:09.041Z,17.2
2019-04-25T06:09:49.609Z,17.38
2019-04-25T06:10:30.315Z,17.42
2019-04-25T06:11:10.881Z,17.45
2019-04-25T06:11:53.223Z,17.54
2019-04-25T06:12:33.525Z,17.76
2019-04-25T06:13:13.750Z,17.87
2019-04-25T06:13:53.337Z,17.85
2019-04-25T06:14:33.831Z,17.95
2019-04-25T06:15:14.422Z,18.01
2019-04-25T06:15:55.002Z,18.16
2019-04-25T06:16:35.581Z,18.23
2019-04-25T06:17:16.236Z,18.18
2019-04-25T06:17:56.903Z,18.33
2019-04-25T06:18:37.412Z,18.26
2019-04-25T06:19:18.877Z,18.33
2019-04-25T06:19:58.564Z,18.35
2019-04-25T06:20:39.167Z,18.26
2019-04-25T06:21:19.986Z,18.33
2019-04-25T06:22:00.406Z,18.35
2019-04-25T06:22:41.152Z,18.41
2019-04-25T06:23:22.545Z,18.41
2019-04-25T06:24:04.139Z,18.53
2019-04-25T06:24:44.380Z,18.5
2019-04-25T06:25:29.243Z,18.56
2019-04-25T06:26:18.807Z,18.6
2019-04-25T06:26:44.674Z,18.6
2019-04-25T06:27:25.909Z,18.59
2019-04-25T06:28:05.930Z,18.65
2019-04-25T06:28:52.243Z,18.53
2019-04-25T06:29:27.093Z,18.45
2019-04-25T06:30:07.646Z,18.47
2019-04-25T06:30:48.223Z,18.58
2019-04-25T06:31:29.290Z,18.63
2019-04-25T06:32:09.352Z,18.7
2019-04-25T06:32:50.257Z,18.83
2019-04-25T06:33:31.855Z,18.93
2019-04-25T06:34:11.513Z,19.04
2019-04-25T06:34:52.124Z,19.22
2019-04-25T06:35:34.207Z,19.3
2019-04-25T06:36:13.950Z,19.52
2019-04-25T06:36:53.796Z,19.47
2019-04-25T06:37:35.110Z,19.47
2019-04-25T06:38:14.936Z,19.54
2019-04-25T06:38:55.494Z,19.59
2019-04-25T06:39:36.173Z,19.59
2019-04-25T06:40:16.747Z,19.91
2019-04-25T06:40:57.321Z,20.02
2019-04-25T06:41:38.020Z,20.18
2019-04-25T06:42:18.591Z,20.34
2019-04-25T06:42:59.266Z,20.55
2019-04-25T06:43:39.777Z,20.59
2019-04-25T06:44:20.724Z,20.75
2019-04-25T06:45:00.931Z,20.87
2019-04-25T06:45:41.613Z,20.93
2019-04-25T06:46:22.804Z,20.99
2019-04-25T06:47:03.363Z,21.05
2019-04-25T06:47:44.238Z,21.24
2019-04-25T06:48:24.938Z,21.27
2019-04-25T06:49:04.687Z,21.5
2019-04-25T06:49:45.265Z,21.54
2019-04-25T06:50:26.177Z,21.64
2019-04-25T06:51:06.412Z,21.6
2019-04-25T06:51:46.978Z,21.66
2019-04-25T06:52:29.797Z,21.66
2019-04-25T06:53:08.166Z,21.6
2019-04-25T06:53:48.727Z,21.57
2019-04-25T06:54:29.537Z,21.51
2019-04-25T06:55:09.867Z,21.46
2019-04-25T06:55:50.485Z,21.6
2019-04-25T06:56:31.047Z,21.75
2019-04-25T06:57:11.621Z,21.7
2019-04-25T06:57:53.865Z,21.69
2019-04-25T06:58:34.198Z,21.75
2019-04-25T06:59:13.666Z,21.61
2019-04-25T06:59:54.059Z,21.46
2019-04-25T07:00:40.896Z,21.45
2019-04-25T07:01:15.253Z,21.37
2019-04-25T07:01:56.124Z,21.24
2019-04-25T07:02:36.394Z,21.15
2019-04-25T07:03:17.017Z,21.2
2019-04-25T07:03:57.541Z,21.22
2019-04-25T07:04:38.130Z,21.18
2019-04-25T07:05:26.325Z,21.12
2019-04-25T07:05:59.277Z,20.99
2019-04-25T07:06:39.885Z,20.97
2019-04-25T07:07:20.463Z,20.84
2019-04-25T07:08:01.073Z,20.8
2019-04-25T07:08:42.972Z,20.65
2019-04-25T07:09:23.314Z,20.6
2019-04-25T07:10:03.596Z,20.44
2019-04-25T07:10:44.582Z,20.44
2019-04-25T07:11:25.685Z,20.37
2019-04-25T07:12:04.572Z,20.4
2019-04-25T07:12:45.133Z,20.37
2019-04-25T07:13:26.930Z,20.47
2019-04-25T07:14:06.304Z,20.59
2019-04-25T07:14:46.877Z,20.77
2019-04-25T07:15:27.904Z,21
2019-04-25T07:16:08.057Z,21.12
2019-04-25T07:16:48.606Z,21.3
2019-04-25T07:17:29.202Z,21.54
2019-04-25T07:18:09.775Z,21.58
2019-04-25T07:18:50.406Z,21.82
2019-04-25T07:19:31.833Z,21.79
2019-04-25T07:20:11.656Z,22
2019-04-25T07:20:53.349Z,22.14
2019-04-25T07:21:34.321Z,22.23
2019-04-25T07:22:13.920Z,22.39
2019-04-25T07:22:53.979Z,22.43
2019-04-25T07:23:34.699Z,22.59
2019-04-25T07:24:17.472Z,22.76
2019-04-25T07:24:55.777Z,22.83
2019-04-25T07:25:36.693Z,22.94
2019-04-25T07:26:17.007Z,23.05
2019-04-25T07:26:57.605Z,23.13
2019-04-25T07:27:38.176Z,23.12
2019-04-25T07:28:23.988Z,23.1
2019-04-25T07:28:59.400Z,23.1
2019-04-25T07:29:40.024Z,23.09
2019-04-25T07:30:27.116Z,23.18
2019-04-25T07:31:01.283Z,23.15
2019-04-25T07:31:41.861Z,23.28
2019-04-25T07:32:24.221Z,23.39
2019-04-25T07:33:03.808Z,23.36
2019-04-25T07:33:44.009Z,23.4
2019-04-25T07:34:25.260Z,23.37
2019-04-25T07:35:05.227Z,23.46
2019-04-25T07:35:45.804Z,23.59
2019-04-25T07:36:26.409Z,23.58
2019-04-25T07:37:07.007Z,23.61
2019-04-25T07:37:47.610Z,23.68
2019-04-25T07:38:29.047Z,23.76
2019-04-25T07:39:10.444Z,23.87
2019-04-25T07:39:49.416Z,23.91
2019-04-25T07:40:30.053Z,23.93
2019-04-25T07:41:10.649Z,23.91
2019-04-25T07:41:51.204Z,23.87
2019-04-25T07:42:31.848Z,23.87
2019-04-25T07:43:13.399Z,23.8
2019-04-25T07:43:53.350Z,23.73
2019-04-25T07:44:40.501Z,23.78
2019-04-25T07:45:14.284Z,23.91
2019-04-25T07:45:54.775Z,23.91
2019-04-25T07:46:38.403Z,23.99
2019-04-25T07:47:16.105Z,24.08
2019-04-25T07:47:56.575Z,24.08
2019-04-25T07:48:38.126Z,24.14
2019-04-25T07:49:17.737Z,23.98
2019-04-25T07:49:58.384Z,23.87
2019-04-25T07:50:38.988Z,23.8
2019-04-25T07:51:19.569Z,23.62
2019-04-25T07:52:00.185Z,23.51
2019-04-25T07:52:40.779Z,23.39
2019-04-25T07:53:21.347Z,23.36
2019-04-25T07:54:01.914Z,23.23
2019-04-25T07:54:43.864Z,23.23
2019-04-25T07:55:23.423Z,23.24
2019-04-25T07:56:04.231Z,23.24
2019-04-25T07:59:03.812Z,23.43
2019-04-25T07:59:43.611Z,23.51
2019-04-25T08:00:24.096Z,23.47
2019-04-25T08:01:04.458Z,23.48
2019-04-25T08:01:44.988Z,23.59
2019-04-25T08:02:25.608Z,23.48
2019-04-25T08:03:06.213Z,23.46
2019-04-25T08:03:46.861Z,23.32
2019-04-25T08:04:27.624Z,23.37
2019-04-25T08:05:08.048Z,23.2
2019-04-25T08:05:48.661Z,23.15
2019-04-25T08:06:29.393Z,23.1
2019-04-25T08:07:09.891Z,23.09
2019-04-25T08:07:50.478Z,23.1
2019-04-25T08:08:31.814Z,23.17
2019-04-25T08:09:11.701Z,23.2
2019-04-25T08:09:54.020Z,23.27
2019-04-25T08:10:33.816Z,23.23
2019-04-25T08:11:13.992Z,23.25
2019-04-25T08:11:54.870Z,23.36
2019-04-25T08:12:35.627Z,23.39
2019-04-25T08:13:15.239Z,23.36
2019-04-25T08:13:55.801Z,23.39
2019-04-25T08:14:37.226Z,23.36
2019-04-25T08:15:16.941Z,23.34
2019-04-25T08:15:57.519Z,23.44
2019-04-25T08:16:38.139Z,23.43
2019-04-25T08:17:18.676Z,23.47
2019-04-25T08:17:59.268Z,23.51
2019-04-25T08:18:39.872Z,23.54
2019-04-25T08:19:20.463Z,23.59
2019-04-25T08:20:01.038Z,23.59
2019-04-25T08:20:43.278Z,23.66
2019-04-25T08:21:23.725Z,23.73
2019-04-25T08:22:03.613Z,23.74
2019-04-25T08:22:55.403Z,23.84
2019-04-25T08:23:23.930Z,23.91
2019-04-25T08:24:04.699Z,23.84
2019-04-25T08:24:45.138Z,23.77
2019-04-25T08:25:25.714Z,23.78
2019-04-25T08:26:06.272Z,23.76
2019-04-25T08:26:46.899Z,23.76
2019-04-25T08:27:27.444Z,23.8
2019-04-25T08:28:08.015Z,23.76
2019-04-25T08:28:54.315Z,23.63
2019-04-25T08:29:29.172Z,23.56
2019-04-25T08:30:09.767Z,23.51
2019-04-25T08:30:50.376Z,23.56
2019-04-25T08:31:31.251Z,23.51
2019-04-25T08:32:11.542Z,23.43
2019-04-25T08:32:53.902Z,23.44
2019-04-25T08:33:34.266Z,23.36
2019-04-25T08:34:14.439Z,23.28
2019-04-25T08:34:54.242Z,23.08
2019-04-25T08:35:35.444Z,22.99
2019-04-25T08:36:15.028Z,22.9
2019-04-25T08:36:55.635Z,22.81
2019-04-25T08:37:36.599Z,22.59
2019-04-25T08:38:16.806Z,22.6
2019-04-25T08:38:57.394Z,22.55
2019-04-25T08:39:38.697Z,22.44
2019-04-25T08:40:18.615Z,22.38
2019-04-25T08:40:59.184Z,22.39
2019-04-25T08:41:39.874Z,22.25
2019-04-25T08:42:20.482Z,22.25
2019-04-25T08:43:01.071Z,22.2
2019-04-25T08:43:41.636Z,22.23
2019-04-25T08:44:23.922Z,22.35
2019-04-25T08:45:03.670Z,22.47
2019-04-25T08:45:44.226Z,22.63
2019-04-25T08:46:25.269Z,22.69
2019-04-25T08:47:04.614Z,22.83
2019-04-25T08:47:45.160Z,22.94
2019-04-25T08:48:25.729Z,22.9
2019-04-25T08:49:06.517Z,22.84
2019-04-25T08:49:49.343Z,22.93